Penrith, Australia
Current Conditions -  °F | °C
As of 8:30 PM on Friday 24 Oct 2014 (Local Time) from YSRI Reporting Station
Clear Clear  
Wind Chill: 75°   Ceiling: Unl
Heat Index: 75°   Visibility: 6mi
Dew Point: 64°   Wind: 8mph
Humidity: 69%   Direction: 80°E
Pressure: 29.88"   Gusts: NA
Location:  33.74°S, 150.7°E
Report Text: YSRI 240930Z AUTO 08007KT 9999 // NCD 24/18 Q1012
Loading
Personal Weather Stations






























Interactive Weather Map
Tropical Storm Tracking
New forecast layout! Learn more

10-Day Weather Forecast

Advertisements
Track Severe Weather on mobile